Time,TemperatureF,DewpointF,PressureIn,WindDirection,WindDirectionDegrees,WindSpeedMPH,WindSpeedGustMPH,Humidity,HourlyPrecipIn,Conditions,Clouds,dailyrainin,SoftwareType,DateUTC
2013-05-22 00:01:00,55.0,48.0,-100.00,NE,55,3.0,4.0,77,-99.99,,,-99.99,,2013-05-22 07:01:00,
2013-05-22 00:11:00,54.0,47.0,-100.00,ENE,60,3.0,5.0,77,-99.99,,,-99.99,,2013-05-22 07:11:00,
2013-05-22 00:21:00,54.0,48.0,-100.00,NE,41,3.0,4.0,79,-99.99,,,-99.99,,2013-05-22 07:21:00,
2013-05-22 00:31:00,53.0,47.0,-100.00,NE,38,4.0,6.0,79,-99.99,,,-99.99,,2013-05-22 07:31:00,
2013-05-22 00:41:00,52.0,46.0,-100.00,NE,54,6.0,8.0,79,-99.99,,,-99.99,,2013-05-22 07:41:00,
2013-05-22 00:52:00,53.0,46.0,-100.00,NE,46,5.0,7.0,78,-99.99,,,-99.99,,2013-05-22 07:52:00,
2013-05-22 01:02:00,52.0,46.0,-100.00,NE,34,4.0,5.0,79,-99.99,,,-99.99,,2013-05-22 08:02:00,
2013-05-22 01:11:00,52.0,46.0,-100.00,NE,45,4.0,6.0,80,-99.99,,,-99.99,,2013-05-22 08:11:00,
2013-05-22 01:21:00,52.0,46.0,-100.00,NE,45,4.0,7.0,81,-99.99,,,-99.99,,2013-05-22 08:21:00,
2013-05-22 01:31:00,51.0,45.0,-100.00,NE,48,6.0,7.0,81,-99.99,,,-99.99,,2013-05-22 08:31:00,
2013-05-22 01:41:00,51.0,45.0,-100.00,NE,47,6.0,8.0,81,-99.99,,,-99.99,,2013-05-22 08:41:00,
2013-05-22 01:51:00,51.0,45.0,-100.00,NE,42,5.0,7.0,81,-99.99,,,-99.99,,2013-05-22 08:51:00,
2013-05-22 02:01:00,51.0,46.0,-100.00,NE,39,5.0,8.0,82,-99.99,,,-99.99,,2013-05-22 09:01:00,
2013-05-22 02:11:00,50.0,45.0,-100.00,NE,34,4.0,6.0,83,-99.99,,,-99.99,,2013-05-22 09:11:00,
2013-05-22 02:21:00,50.0,45.0,-100.00,NE,43,5.0,7.0,83,-99.99,,,-99.99,,2013-05-22 09:21:00,
2013-05-22 02:32:00,49.0,44.0,-100.00,NNE,33,5.0,6.0,83,-99.99,,,-99.99,,2013-05-22 09:32:00,
2013-05-22 02:42:00,49.0,44.0,-100.00,NE,35,5.0,6.0,83,-99.99,,,-99.99,,2013-05-22 09:42:00,
2013-05-22 02:53:00,49.0,44.0,-100.00,NE,36,5.0,7.0,83,-99.99,,,-99.99,,2013-05-22 09:53:00,
2013-05-22 03:02:00,49.0,44.0,-100.00,NE,47,5.0,7.0,83,-99.99,,,-99.99,,2013-05-22 10:02:00,
2013-05-22 03:12:00,50.0,45.0,-100.00,NE,43,4.0,6.0,83,-99.99,,,-99.99,,2013-05-22 10:12:00,
2013-05-22 03:22:00,49.0,44.0,-100.00,NNE,32,5.0,7.0,83,-99.99,,,-99.99,,2013-05-22 10:22:00,
2013-05-22 03:32:00,48.0,43.0,-100.00,NE,46,6.0,8.0,82,-99.99,,,-99.99,,2013-05-22 10:32:00,
2013-05-22 03:42:00,50.0,42.0,-100.00,NE,55,6.0,8.0,75,-99.99,,,-99.99,,2013-05-22 10:42:00,
2013-05-22 03:52:00,49.0,42.0,-100.00,NE,52,6.0,9.0,78,-99.99,,,-99.99,,2013-05-22 10:52:00,
2013-05-22 04:02:00,49.0,42.0,-100.00,NE,50,7.0,10.0,76,-99.99,,,-99.99,,2013-05-22 11:02:00,
2013-05-22 04:11:00,49.0,42.0,-100.00,NE,51,7.0,9.0,77,-99.99,,,-99.99,,2013-05-22 11:11:00,
2013-05-22 04:21:00,49.0,42.0,-100.00,NE,52,7.0,9.0,76,-99.99,,,-99.99,,2013-05-22 11:21:00,
2013-05-22 04:32:00,49.0,42.0,-100.00,NE,43,6.0,9.0,77,-99.99,,,-99.99,,2013-05-22 11:32:00,
2013-05-22 04:41:00,48.0,41.0,-100.00,NE,44,6.0,8.0,78,-99.99,,,-99.99,,2013-05-22 11:41:00,
2013-05-22 04:52:00,49.0,42.0,-100.00,NE,45,5.0,8.0,76,-99.99,,,-99.99,,2013-05-22 11:52:00,
2013-05-22 05:02:00,48.0,41.0,-100.00,NE,37,4.0,7.0,77,-99.99,,,-99.99,,2013-05-22 12:02:00,
2013-05-22 05:11:00,48.0,42.0,-100.00,NE,39,4.0,6.0,80,-99.99,,,-99.99,,2013-05-22 12:11:00,
2013-05-22 05:22:00,47.0,41.0,-100.00,NE,37,4.0,6.0,79,-99.99,,,-99.99,,2013-05-22 12:22:00,
2013-05-22 05:32:00,47.0,41.0,-100.00,NE,41,3.0,5.0,79,-99.99,,,-99.99,,2013-05-22 12:32:00,
2013-05-22 05:42:00,47.0,41.0,-100.00,NE,41,4.0,7.0,79,-99.99,,,-99.99,,2013-05-22 12:42:00,
2013-05-22 05:52:00,48.0,41.0,-100.00,NE,51,4.0,6.0,76,-99.99,,,-99.99,,2013-05-22 12:52:00,
2013-05-22 06:01:00,47.0,40.0,-100.00,NE,36,4.0,5.0,76,-99.99,,,-99.99,,2013-05-22 13:01:00,
2013-05-22 06:11:00,45.0,40.0,-100.00,NNE,23,4.0,6.0,81,-99.99,,,-99.99,,2013-05-22 13:11:00,
2013-05-22 06:21:00,44.0,39.0,-100.00,NNE,22,5.0,7.0,83,-99.99,,,-99.99,,2013-05-22 13:21:00,
2013-05-22 06:31:00,44.0,39.0,-100.00,NNE,22,5.0,7.0,83,-99.99,,,-99.99,,2013-05-22 13:31:00,
2013-05-22 06:41:00,44.0,39.0,-100.00,NNE,22,5.0,7.0,83,-99.99,,,-99.99,,2013-05-22 13:41:00,
2013-05-22 06:52:00,49.0,40.0,-100.00,NE,37,4.0,6.0,72,-99.99,,,-99.99,,2013-05-22 13:52:00,
2013-05-22 07:02:00,49.0,41.0,-100.00,NE,38,4.0,7.0,73,-99.99,,,-99.99,,2013-05-22 14:02:00,
2013-05-22 07:11:00,50.0,41.0,-100.00,NNE,30,4.0,5.0,70,-99.99,,,-99.99,,2013-05-22 14:11:00,
2013-05-22 07:21:00,52.0,41.0,-100.00,NNE,23,3.0,5.0,67,-99.99,,,-99.99,,2013-05-22 14:21:00,
2013-05-22 07:32:00,54.0,42.0,-100.00,NNE,22,4.0,6.0,64,-99.99,,,-99.99,,2013-05-22 14:32:00,
2013-05-22 07:41:00,57.0,43.0,-100.00,NNE,24,2.0,3.0,59,-99.99,,,-99.99,,2013-05-22 14:41:00,
2013-05-22 07:52:00,60.0,42.0,-100.00,NE,44,1.0,2.0,52,-99.99,,,-99.99,,2013-05-22 14:52:00,
2013-05-22 08:01:00,64.0,42.0,-100.00,SSW,196,1.0,3.0,44,-99.99,,,-99.99,,2013-05-22 15:01:00,
2013-05-22 08:21:00,64.0,41.0,-100.00,WSW,246,3.0,5.0,43,-99.99,,,-99.99,,2013-05-22 15:21:00,
2013-05-22 08:32:00,64.0,41.0,-100.00,SW,234,3.0,6.0,43,-99.99,,,-99.99,,2013-05-22 15:32:00,
2013-05-22 08:42:00,65.0,41.0,-100.00,SW,214,3.0,6.0,41,-99.99,,,-99.99,,2013-05-22 15:42:00,
2013-05-22 08:53:00,66.0,41.0,-100.00,WSW,249,4.0,8.0,40,-99.99,,,-99.99,,2013-05-22 15:53:00,
2013-05-22 09:02:00,66.0,41.0,-100.00,WSW,249,4.0,8.0,40,-99.99,,,-99.99,,2013-05-22 16:02:00,
2013-05-22 09:12:00,68.0,39.0,-100.00,WSW,252,4.0,8.0,34,-99.99,,,-99.99,,2013-05-22 16:12:00,
2013-05-22 09:22:00,69.0,37.0,-100.00,WSW,241,6.0,11.0,31,-99.99,,,-99.99,,2013-05-22 16:22:00,
2013-05-22 09:32:00,70.0,35.0,-100.00,SW,236,7.0,11.0,28,-99.99,,,-99.99,,2013-05-22 16:32:00,
2013-05-22 09:42:00,71.0,34.0,-100.00,SW,235,8.0,13.0,26,-99.99,,,-99.99,,2013-05-22 16:42:00,
2013-05-22 09:52:00,72.0,34.0,-100.00,SW,215,10.0,14.0,25,-99.99,,,-99.99,,2013-05-22 16:52:00,
2013-05-22 10:02:00,72.0,33.0,-100.00,SW,221,10.0,15.0,24,-99.99,,,-99.99,,2013-05-22 17:02:00,
2013-05-22 10:11:00,73.0,32.0,-100.00,SSW,213,11.0,19.0,22,-99.99,,,-99.99,,2013-05-22 17:11:00,
2013-05-22 10:22:00,73.0,32.0,-100.00,SW,229,10.0,15.0,22,-99.99,,,-99.99,,2013-05-22 17:22:00,
2013-05-22 10:32:00,74.0,33.0,-100.00,WSW,239,9.0,15.0,22,-99.99,,,-99.99,,2013-05-22 17:32:00,
2013-05-22 10:42:00,75.0,32.0,-100.00,SW,236,9.0,14.0,21,-99.99,,,-99.99,,2013-05-22 17:42:00,
2013-05-22 10:53:00,75.0,32.0,-100.00,SW,235,10.0,17.0,21,-99.99,,,-99.99,,2013-05-22 17:53:00,
2013-05-22 11:02:00,75.0,31.0,-100.00,SW,234,9.0,15.0,20,-99.99,,,-99.99,,2013-05-22 18:02:00,
2013-05-22 11:14:00,76.0,32.0,-100.00,SW,218,11.0,19.0,20,-99.99,,,-99.99,,2013-05-22 18:14:00,
2013-05-22 11:22:00,76.0,32.0,-100.00,SW,223,11.0,18.0,20,-99.99,,,-99.99,,2013-05-22 18:22:00,
2013-05-22 11:33:00,77.0,34.0,-100.00,SW,233,10.0,16.0,21,-99.99,,,-99.99,,2013-05-22 18:33:00,
2013-05-22 11:42:00,76.0,37.0,-100.00,WSW,241,11.0,17.0,24,-99.99,,,-99.99,,2013-05-22 18:42:00,
2013-05-22 11:52:00,76.0,39.0,-100.00,WSW,241,11.0,18.0,26,-99.99,,,-99.99,,2013-05-22 18:52:00,
2013-05-22 12:02:00,76.0,40.0,-100.00,WSW,238,12.0,21.0,27,-99.99,,,-99.99,,2013-05-22 19:02:00,
2013-05-22 12:11:00,76.0,41.0,-100.00,WSW,247,12.0,20.0,28,-99.99,,,-99.99,,2013-05-22 19:11:00,
2013-05-22 12:21:00,76.0,41.0,-100.00,WSW,249,12.0,19.0,28,-99.99,,,-99.99,,2013-05-22 19:21:00,
2013-05-22 12:31:00,76.0,39.0,-100.00,WSW,244,11.0,20.0,26,-99.99,,,-99.99,,2013-05-22 19:31:00,
2013-05-22 12:41:00,76.0,36.0,-100.00,WSW,252,11.0,18.0,23,-99.99,,,-99.99,,2013-05-22 19:41:00,
2013-05-22 12:52:00,76.0,37.0,-100.00,WSW,241,12.0,18.0,24,-99.99,,,-99.99,,2013-05-22 19:52:00,
2013-05-22 13:01:00,77.0,36.0,-100.00,SW,234,12.0,20.0,23,-99.99,,,-99.99,,2013-05-22 20:01:00,
2013-05-22 13:11:00,76.0,33.0,-100.00,SW,233,14.0,21.0,21,-99.99,,,-99.99,,2013-05-22 20:11:00,
2013-05-22 13:21:00,76.0,37.0,-100.00,WSW,247,12.0,18.0,24,-99.99,,,-99.99,,2013-05-22 20:21:00,
2013-05-22 13:32:00,76.0,36.0,-100.00,WSW,244,12.0,18.0,23,-99.99,,,-99.99,,2013-05-22 20:32:00,
2013-05-22 13:41:00,75.0,39.0,-100.00,WSW,249,12.0,25.0,27,-99.99,,,-99.99,,2013-05-22 20:41:00,
2013-05-22 13:51:00,75.0,38.0,-100.00,WSW,251,12.0,20.0,26,-99.99,,,-99.99,,2013-05-22 20:51:00,
2013-05-22 14:01:00,75.0,36.0,-100.00,WSW,248,11.0,19.0,24,-99.99,,,-99.99,,2013-05-22 21:01:00,
2013-05-22 14:11:00,76.0,36.0,-100.00,WSW,242,12.0,20.0,23,-99.99,,,-99.99,,2013-05-22 21:11:00,
2013-05-22 14:21:00,76.0,37.0,-100.00,WSW,242,12.0,21.0,24,-99.99,,,-99.99,,2013-05-22 21:21:00,
2013-05-22 14:32:00,75.0,38.0,-100.00,WSW,240,14.0,21.0,26,-99.99,,,-99.99,,2013-05-22 21:32:00,
2013-05-22 14:42:00,75.0,36.0,-100.00,WSW,248,13.0,23.0,24,-99.99,,,-99.99,,2013-05-22 21:42:00,
2013-05-22 14:52:00,75.0,37.0,-100.00,SW,234,15.0,24.0,25,-99.99,,,-99.99,,2013-05-22 21:52:00,
2013-05-22 15:02:00,76.0,37.0,-100.00,WSW,244,12.0,21.0,24,-99.99,,,-99.99,,2013-05-22 22:02:00,
2013-05-22 15:12:00,76.0,37.0,-100.00,WSW,244,12.0,21.0,24,-99.99,,,-99.99,,2013-05-22 22:12:00,
2013-05-22 15:22:00,76.0,37.0,-100.00,WSW,244,12.0,21.0,24,-99.99,,,-99.99,,2013-05-22 22:22:00,
2013-05-22 15:33:00,76.0,37.0,-100.00,WSW,244,12.0,21.0,24,-99.99,,,-99.99,,2013-05-22 22:33:00,
2013-05-22 15:42:00,75.0,36.0,-100.00,SW,233,14.0,23.0,24,-99.99,,,-99.99,,2013-05-22 22:42:00,
2013-05-22 15:52:00,74.0,35.0,-100.00,SW,233,14.0,22.0,24,-99.99,,,-99.99,,2013-05-22 22:52:00,
2013-05-22 16:02:00,74.0,34.0,-100.00,SW,225,16.0,24.0,23,-99.99,,,-99.99,,2013-05-22 23:02:00,
2013-05-22 16:12:00,73.0,28.0,-100.00,WSW,239,16.0,24.0,19,-99.99,,,-99.99,,2013-05-22 23:12:00,
2013-05-22 16:21:00,74.0,26.0,-100.00,SW,231,14.0,21.0,17,-99.99,,,-99.99,,2013-05-22 23:21:00,
2013-05-22 16:32:00,74.0,26.0,-100.00,WSW,237,14.0,24.0,17,-99.99,,,-99.99,,2013-05-22 23:32:00,
2013-05-22 16:42:00,73.0,21.0,-100.00,SW,229,15.0,21.0,14,-99.99,,,-99.99,,2013-05-22 23:42:00,
2013-05-22 16:52:00,73.0,17.0,-100.00,SW,234,14.0,21.0,12,-99.99,,,-99.99,,2013-05-22 23:52:00,
2013-05-22 17:01:00,73.0,17.0,-100.00,SW,236,15.0,22.0,12,-99.99,,,-99.99,,2013-05-23 00:01:00,
2013-05-22 17:11:00,72.0,17.0,-100.00,WSW,239,15.0,23.0,12,-99.99,,,-99.99,,2013-05-23 00:11:00,
2013-05-22 17:21:00,72.0,17.0,-100.00,WSW,239,15.0,23.0,12,-99.99,,,-99.99,,2013-05-23 00:21:00,
2013-05-22 17:31:00,72.0,17.0,-100.00,WSW,239,15.0,23.0,12,-99.99,,,-99.99,,2013-05-23 00:31:00,
2013-05-22 17:41:00,71.0,19.0,-100.00,WSW,237,13.0,20.0,14,-99.99,,,-99.99,,2013-05-23 00:41:00,
2013-05-22 17:51:00,70.0,22.0,-100.00,WSW,239,14.0,19.0,16,-99.99,,,-99.99,,2013-05-23 00:51:00,
2013-05-22 18:01:00,70.0,25.0,-100.00,WSW,241,12.0,21.0,18,-99.99,,,-99.99,,2013-05-23 01:01:00,
2013-05-22 18:11:00,70.0,29.0,-100.00,SW,236,13.0,19.0,22,-99.99,,,-99.99,,2013-05-23 01:11:00,
2013-05-22 18:21:00,69.0,32.0,-100.00,WSW,243,11.0,17.0,25,-99.99,,,-99.99,,2013-05-23 01:21:00,
2013-05-22 18:32:00,68.0,30.0,-100.00,WSW,241,11.0,18.0,24,-99.99,,,-99.99,,2013-05-23 01:32:00,
2013-05-22 18:42:00,68.0,27.0,-100.00,SW,234,12.0,18.0,21,-99.99,,,-99.99,,2013-05-23 01:42:00,
2013-05-22 18:52:00,67.0,28.0,-100.00,SW,235,12.0,18.0,23,-99.99,,,-99.99,,2013-05-23 01:52:00,
2013-05-22 19:01:00,66.0,34.0,-100.00,WSW,237,11.0,17.0,30,-99.99,,,-99.99,,2013-05-23 02:01:00,
2013-05-22 19:11:00,65.0,37.0,-100.00,SW,234,11.0,17.0,36,-99.99,,,-99.99,,2013-05-23 02:11:00,
2013-05-22 19:21:00,64.0,40.0,-100.00,SW,231,11.0,17.0,41,-99.99,,,-99.99,,2013-05-23 02:21:00,
2013-05-22 19:31:00,62.0,42.0,-100.00,SW,232,10.0,18.0,47,-99.99,,,-99.99,,2013-05-23 02:31:00,
2013-05-22 19:42:00,62.0,42.0,-100.00,SW,232,10.0,18.0,47,-99.99,,,-99.99,,2013-05-23 02:42:00,
2013-05-22 19:51:00,62.0,42.0,-100.00,SW,232,10.0,18.0,47,-99.99,,,-99.99,,2013-05-23 02:51:00,
2013-05-22 20:01:00,59.0,44.0,-100.00,SW,218,7.0,12.0,58,-99.99,,,-99.99,,2013-05-23 03:01:00,
2013-05-22 20:11:00,58.0,45.0,-100.00,SW,217,7.0,13.0,61,-99.99,,,-99.99,,2013-05-23 03:11:00,
2013-05-22 20:21:00,57.0,44.0,-100.00,SW,218,5.0,10.0,62,-99.99,,,-99.99,,2013-05-23 03:21:00,
2013-05-22 20:33:00,57.0,45.0,-100.00,SW,223,6.0,8.0,64,-99.99,,,-99.99,,2013-05-23 03:33:00,
2013-05-22 20:43:00,56.0,45.0,-100.00,SW,236,7.0,10.0,67,-99.99,,,-99.99,,2013-05-23 03:43:00,
2013-05-22 20:53:00,55.0,46.0,-100.00,SW,232,7.0,9.0,71,-99.99,,,-99.99,,2013-05-23 03:53:00,
2013-05-22 21:02:00,54.0,46.0,-100.00,SW,230,7.0,12.0,74,-99.99,,,-99.99,,2013-05-23 04:02:00,
2013-05-22 21:12:00,53.0,46.0,-100.00,SW,231,6.0,8.0,77,-99.99,,,-99.99,,2013-05-23 04:12:00,
2013-05-22 21:22:00,53.0,46.0,-100.00,SW,231,4.0,6.0,77,-99.99,,,-99.99,,2013-05-23 04:22:00,
2013-05-22 21:33:00,53.0,46.0,-100.00,WSW,244,5.0,7.0,77,-99.99,,,-99.99,,2013-05-23 04:33:00,
2013-05-22 21:42:00,52.0,46.0,-100.00,WSW,257,4.0,6.0,79,-99.99,,,-99.99,,2013-05-23 04:42:00,
2013-05-22 21:52:00,52.0,46.0,-100.00,WSW,257,4.0,6.0,79,-99.99,,,-99.99,,2013-05-23 04:52:00,
2013-05-22 22:02:00,51.0,45.0,-100.00,WSW,239,4.0,6.0,81,-99.99,,,-99.99,,2013-05-23 05:02:00,
2013-05-22 22:11:00,51.0,46.0,-100.00,WSW,243,4.0,6.0,83,-99.99,,,-99.99,,2013-05-23 05:11:00,
2013-05-22 22:21:00,50.0,46.0,-100.00,WSW,248,3.0,5.0,85,-99.99,,,-99.99,,2013-05-23 05:21:00,
2013-05-22 22:32:00,50.0,46.0,-100.00,WSW,244,4.0,6.0,87,-99.99,,,-99.99,,2013-05-23 05:32:00,
2013-05-22 22:42:00,50.0,46.0,-100.00,SW,225,4.0,6.0,87,-99.99,,,-99.99,,2013-05-23 05:42:00,
2013-05-22 22:52:00,50.0,47.0,-100.00,SW,236,3.0,5.0,88,-99.99,,,-99.99,,2013-05-23 05:52:00,
2013-05-22 23:02:00,50.0,47.0,-100.00,WSW,245,4.0,5.0,89,-99.99,,,-99.99,,2013-05-23 06:02:00,
2013-05-22 23:11:00,49.0,46.0,-100.00,WSW,243,5.0,6.0,90,-99.99,,,-99.99,,2013-05-23 06:11:00,
2013-05-22 23:21:00,49.0,47.0,-100.00,WSW,238,5.0,7.0,92,-99.99,,,-99.99,,2013-05-23 06:21:00,
2013-05-22 23:31:00,49.0,47.0,-100.00,SW,231,6.0,8.0,93,-99.99,,,-99.99,,2013-05-23 06:31:00,
2013-05-22 23:41:00,49.0,47.0,-100.00,WSW,243,5.0,7.0,93,-99.99,,,-99.99,,2013-05-23 06:41:00,
2013-05-22 23:51:00,49.0,47.0,-100.00,WSW,239,4.0,8.0,94,-99.99,,,-99.99,,2013-05-23 06:51:00,